Avery, Texas
Current Conditions -  °F | °C
As of 9:15 PM on Friday 21 Nov 2014 (Local Time) from K4O4 Reporting Station
Overcast Overcast  
Wind Chill: 13°   Ceiling: 3800
Heat Index: 13°   Visibility: 10mi
Dew Point: 12°   Wind: 8mph
Humidity: 94%   Direction: 120°ESE
Pressure: 30.17"   Gusts: NA
Location:  33.55°N, 94.78°W
Report Text: K4O4 220315Z AUTO 12007KT 10SM OVC038 13/12 A3017 RMK AO2
Loading
Personal Weather Stations






























Interactive Weather Map New forecast layout! Learn more

10-Day Weather Forecast

Advertisements
Track Severe Weather on mobile